logo meteosicilia

Diretta Meteo Ljungbyhed, Sveziasabato 20 luglio ore 22:50

Mappa
Sereno 16 °C Sereno 24 Ore: T.min 10 T.max 27
Ponente Nord Km/h 0 Punto di rugiada: 16 °C Umidità: 100% Visibilità: 10 Km
Il sole sorge alle: 04:48 Il sole tramonta alle: 21:39
20 Luglio 2024 22:50 tempo osservato: Sereno Sereno 16 100 1012 vento: Nord N 0
20 Luglio 2024 22:20 tempo osservato: Sereno Sereno 18 82 1012 vento: Nord N 5.5
20 Luglio 2024 21:50 tempo osservato: Sereno Sereno 18 88 1012 vento: Nord O 7.4
20 Luglio 2024 21:20 tempo osservato: Sereno Sereno 20 72 1012 vento: Nord N 5.5
20 Luglio 2024 20:50 tempo osservato: Sereno Sereno 21 73 1012 vento: Nord O/NO 9.3
20 Luglio 2024 20:20 tempo osservato: Sereno Sereno 23 64 1012 vento: Nord O/NO 11.1
20 Luglio 2024 19:50 tempo osservato: Sereno Sereno 23 64 1012 vento: Nord O/NO 14.8
20 Luglio 2024 19:20 tempo osservato: Sereno Sereno 24 60 1012 vento: Nord NO 14.8
20 Luglio 2024 18:50 tempo osservato: Sereno Sereno 25 53 1012 vento: Nord O/NO 16.7
20 Luglio 2024 18:20 tempo osservato: Sereno Sereno 25 53 1012 vento: Nord O/NO 18.5
20 Luglio 2024 17:50 tempo osservato: Sereno Sereno 25 53 1012 vento: Nord O/NO 18.5
20 Luglio 2024 17:20 tempo osservato: Sereno Sereno 25 53 1013 vento: Nord O/NO 18.5
20 Luglio 2024 16:50 tempo osservato: Sereno Sereno 26 50 1013 vento: Nord NO 14.8
20 Luglio 2024 16:20 tempo osservato: Sereno Sereno 27 42 1013 vento: Nord O/NO 13
20 Luglio 2024 15:50 tempo osservato: Sereno Sereno 27 39 1013 vento: Nord N 5.5
20 Luglio 2024 15:20 tempo osservato: Sereno Sereno 26 41 1014 vento: Nord N 3.7
20 Luglio 2024 14:50 tempo osservato: Sereno Sereno 26 41 1014 vento: Nord N 5.5
20 Luglio 2024 14:20 tempo osservato: Sereno Sereno 25 44 1014 vento: Nord N 3.7
20 Luglio 2024 13:50 tempo osservato: Sereno Sereno 25 44 1014 vento: Nord O/NO 9.3
20 Luglio 2024 13:20 tempo osservato: Sereno Sereno 25 47 1014 vento: Nord NE 7.4
20 Luglio 2024 12:50 tempo osservato: Sereno Sereno 24 50 1015 vento: Nord N 5.5
20 Luglio 2024 12:20 tempo osservato: Sereno Sereno 24 47 1015 vento: Nord E/NE 7.4
20 Luglio 2024 11:50 tempo osservato: Sereno Sereno 23 49 1015 vento: Nord NE 7.4
20 Luglio 2024 11:20 tempo osservato: Sereno Sereno 23 49 1015 vento: Nord N/NE 7.4
20 Luglio 2024 10:50 tempo osservato: Sereno Sereno 23 53 1015 vento: Nord N 9.3
20 Luglio 2024 10:20 tempo osservato: Sereno Sereno 22 56 1016 vento: Nord N 7.4
20 Luglio 2024 09:50 tempo osservato: Sereno Sereno 21 64 1016 vento: Nord E/NE 7.4
20 Luglio 2024 09:20 tempo osservato: Sereno Sereno 20 68 1016 vento: Nord N 3.7
20 Luglio 2024 08:50 tempo osservato: Sereno Sereno 20 68 1016 vento: Nord N 0
20 Luglio 2024 08:20 tempo osservato: Sereno Sereno 19 82 1016 vento: Nord N 0
20 Luglio 2024 07:50 tempo osservato: Sereno Sereno 16 100 1016 vento: Nord N 0
20 Luglio 2024 07:20 tempo osservato: Sereno Sereno 13 100 1017 vento: Nord N 1.8
20 Luglio 2024 06:50 tempo osservato: Nebbia Nebbia 12 100 1017 vento: Nord N 0
20 Luglio 2024 06:20 tempo osservato: Banco di nebbia Banco di nebbia 11 100 1017 vento: Nord N 0
20 Luglio 2024 05:50 tempo osservato: Foschia Foschia 10 100 1017 vento: Nord N 0
20 Luglio 2024 05:20 tempo osservato: Sereno Sereno 10 100 1017 vento: Nord N 3.7
20 Luglio 2024 04:50 tempo osservato: Poco Nuvoloso Poco Nuvoloso 10 100 1017 vento: Nord N 3.7
20 Luglio 2024 04:20 tempo osservato: Banco di nebbia Banco di nebbia 10 100 1018 vento: Nord N 0
20 Luglio 2024 03:50 tempo osservato: Banco di nebbia Banco di nebbia 10 100 1018 vento: Nord N 0
20 Luglio 2024 03:20 tempo osservato: Banco di nebbia Banco di nebbia 10 100 1018 vento: Nord N 0
20 Luglio 2024 02:50 tempo osservato: Banco di nebbia Banco di nebbia 10 100 1018 vento: Nord N 0
20 Luglio 2024 02:20 tempo osservato: Foschia Foschia 11 100 1018 vento: Nord N 0
20 Luglio 2024 01:50 tempo osservato: Sereno Sereno 11 100 1018 vento: Nord N 0
20 Luglio 2024 01:20 tempo osservato: Foschia Foschia 12 100 1018 vento: Nord N 0
20 Luglio 2024 00:50 tempo osservato: Sereno Sereno 12 100 1018 vento: Nord N 0
20 Luglio 2024 00:20 tempo osservato: Sereno Sereno 12 100 1018 vento: Nord N 0
19 Luglio 2024 23:50 tempo osservato: Sereno Sereno 13 100 1018 vento: Nord N 0